This is the latest recevied weather packets stored in our database for station/object N2UGS-WX. If no packets are shown the sender has not sent any weather packets the latest 10 day(s).
| Time | Temp. | Humidity | Pressure | Rain* | Wind** | Luminosity | Snow |
|---|---|---|---|---|---|---|---|
| 1777685403 | 5.56° C | 79% | 1013.9 hPa | 0 mm | - | - | - |
| 1777684502 | 5.56° C | 81% | 1013.9 hPa | 0 mm | - | - | - |
| 1777683603 | 5.56° C | 82% | 1013.5 hPa | 0 mm | - | - | - |
| 1777682942 | 5.56° C | 82% | 1013.5 hPa | 0 mm | - | - | - |
| 1777682103 | 6.11° C | 83% | 1013.2 hPa | 0 mm | - | - | - |
| 1777681203 | 6.11° C | 81% | 1013.2 hPa | 0 mm | - | - | - |
| 1777679402 | 6.67° C | 77% | 1012.9 hPa | 0 mm | - | - | - |
| 1777678502 | 7.22° C | 76% | 1012.5 hPa | 0 mm | - | - | - |
| 1777677602 | 7.78° C | 73% | 1012.5 hPa | 0 mm | - | - | - |
| 1777677002 | 7.78° C | 71% | 1012.5 hPa | 0 mm | - | - | - |
| 1777676102 | 8.89° C | 68% | 1012.5 hPa | 0 mm | - | - | - |
| 1777675203 | 9.44° C | 68% | 1012.2 hPa | 0 mm | - | - | - |
| 1777674303 | 9.44° C | 68% | 1012.2 hPa | 0 mm | - | - | - |
| 1777672802 | 9.44° C | 65% | 1012.2 hPa | 0 mm | - | - | - |
| 1777671902 | 9.44° C | 68% | 1012.5 hPa | 0 mm | - | - | - |
| 1777670102 | 8.89° C | 70% | 1012.2 hPa | 0 mm | - | - | - |
| 1777669202 | 8.33° C | 71% | 1012.2 hPa | 0 mm | - | - | - |
| 1777668542 | 8.33° C | 74% | 1012.2 hPa | 0 mm | - | - | - |
| 1777667642 | 8.33° C | 74% | 1012.2 hPa | 0 mm | - | - | - |
| 1777666742 | 8.33° C | 79% | 1012.2 hPa | 0 mm | - | - | - |
| 1777665842 | 7.78° C | 83% | 1012.2 hPa | 0 mm | - | - | - |
| 1777665002 | 7.78° C | 84% | 1012.5 hPa | 0.25 mm | - | - | - |
| 1777664041 | 7.22° C | 88% | 1012.9 hPa | 0.51 mm | - | - | - |
| 1777663202 | 6.11° C | 90% | 1012.9 hPa | 0.51 mm | - | - | - |
| 1777662302 | 5.56° C | 90% | 1012.9 hPa | 0.51 mm | - | - | - |
* Rain latest hour (hover to see other rain measurements)
** Current wind speed in m/s (hover to see current wind gust speed)